createdAt,value
2016-05-28T09:44:23.356Z,23.02
2016-05-28T09:45:23.327Z,23
2016-05-28T09:46:23.268Z,22.96
2016-05-28T09:47:23.052Z,22.96
2016-05-28T09:48:23.180Z,23
2016-05-28T09:49:23.135Z,22.98
2016-05-28T09:50:23.278Z,23.05
2016-05-28T09:51:22.890Z,23.05
2016-05-28T09:52:22.862Z,23.06
2016-05-28T09:53:22.817Z,23.06
2016-05-28T09:54:22.773Z,23.03
2016-05-28T09:55:22.729Z,23.08
2016-05-28T09:56:22.920Z,22.99
2016-05-28T09:57:22.797Z,22.99
2016-05-28T09:58:22.815Z,22.98
2016-05-28T09:59:22.725Z,22.99
2016-05-28T10:00:22.681Z,22.99
2016-05-28T10:01:22.652Z,22.94
2016-05-28T10:02:27.450Z,22.98
2016-05-28T10:03:22.563Z,23.03
2016-05-28T10:04:22.536Z,23
2016-05-28T10:05:22.319Z,22.94
2016-05-28T10:06:22.430Z,22.98
2016-05-28T10:07:23.387Z,22.94
2016-05-28T10:08:22.358Z,22.99
2016-05-28T10:09:22.345Z,23.02
2016-05-28T10:10:22.286Z,22.98
2016-05-28T10:11:22.242Z,23
2016-05-28T10:12:24.510Z,23.05
2016-05-28T10:13:22.199Z,23.03
2016-05-28T10:14:22.155Z,23.06
2016-05-28T10:15:22.096Z,23.08
2016-05-28T10:16:22.068Z,23
2016-05-28T10:17:26.742Z,23.15
2016-05-28T10:18:21.979Z,23.08
2016-05-28T10:19:21.951Z,23.12
2016-05-28T10:20:22.421Z,23.1
2016-05-28T10:21:21.877Z,23.17
2016-05-28T10:22:23.146Z,23.18
2016-05-28T10:23:21.821Z,23.12
2016-05-28T10:24:21.792Z,23.18
2016-05-28T10:25:21.575Z,23.09
2016-05-28T10:26:21.720Z,23.1
2016-05-28T10:27:23.284Z,23.02
2016-05-28T10:28:21.615Z,23.03
2016-05-28T10:29:21.570Z,23.1
2016-05-28T10:30:21.558Z,23.03
2016-05-28T10:31:21.342Z,23.09
2016-05-28T10:32:22.486Z,23.1
2016-05-28T10:33:21.456Z,23.03
2016-05-28T10:34:21.381Z,23.17
2016-05-28T10:35:21.181Z,23.03
2016-05-28T10:36:21.308Z,23.08
2016-05-28T10:37:21.264Z,23.05
2016-05-28T10:38:21.266Z,23
2016-05-28T10:39:21.207Z,23.09
2016-05-28T10:40:20.866Z,23.02
2016-05-28T10:41:21.119Z,23.09
2016-05-28T10:42:21.090Z,23.02
2016-05-28T10:43:21.046Z,23.03
2016-05-28T10:44:21.033Z,23.08
2016-05-28T10:45:20.973Z,23.03
2016-05-28T10:46:20.960Z,23.12
2016-05-28T10:47:20.901Z,23.06
2016-05-28T10:48:20.871Z,23.06
2016-05-28T10:49:20.687Z,23.15
2016-05-28T10:50:21.065Z,23.17
2016-05-28T10:51:20.755Z,23.18
2016-05-28T10:52:20.554Z,23.18
2016-05-28T10:53:20.667Z,23.23
2016-05-28T10:54:20.638Z,23.18
2016-05-28T10:55:21.001Z,23.25
2016-05-28T10:56:20.581Z,23.25
2016-05-28T10:57:20.521Z,23.25
2016-05-28T10:58:20.493Z,23.34
2016-05-28T10:59:20.448Z,23.2
2016-05-28T11:00:20.404Z,23.32
2016-05-28T11:01:20.391Z,23.28
2016-05-28T11:02:20.363Z,23.36
2016-05-28T11:03:20.162Z,23.27
2016-05-28T11:04:20.259Z,23.27
2016-05-28T11:05:20.245Z,23.34
2016-05-28T11:06:20.202Z,23.32
2016-05-28T11:07:20.158Z,23.36
2016-05-28T11:08:20.113Z,23.31
2016-05-28T11:09:20.085Z,23.41
2016-05-28T11:10:20.041Z,23.27
2016-05-28T11:11:20.027Z,23.34
2016-05-28T11:12:19.968Z,23.36
2016-05-28T11:13:19.939Z,23.34
2016-05-28T11:14:19.895Z,23.34
2016-05-28T11:15:19.866Z,23.36
2016-05-28T11:16:19.822Z,23.34
2016-05-28T11:17:19.638Z,23.37
2016-05-28T11:18:19.766Z,23.31
2016-05-28T11:19:19.565Z,23.34
2016-05-28T11:20:20.036Z,23.36
2016-05-28T11:21:19.633Z,23.39
2016-05-28T11:22:19.605Z,23.41
2016-05-28T11:23:19.575Z,23.44
2016-05-28T11:24:19.531Z,23.36
2016-05-28T11:25:19.487Z,23.4
2016-05-28T11:26:19.443Z,23.39
2016-05-28T11:27:19.258Z,23.43
2016-05-28T11:28:19.354Z,23.41
2016-05-28T11:29:19.342Z,23.34
2016-05-28T11:30:19.298Z,23.41
2016-05-28T11:31:19.269Z,23.37
2016-05-28T11:32:19.225Z,23.43
2016-05-28T11:33:19.181Z,23.47
2016-05-28T11:34:19.153Z,23.48
2016-05-28T11:35:19.108Z,23.36
2016-05-28T11:36:19.063Z,23.46
2016-05-28T11:37:19.035Z,23.44
2016-05-28T11:38:18.991Z,23.43
2016-05-28T11:39:18.962Z,23.47
2016-05-28T11:40:18.777Z,23.43
2016-05-28T11:41:18.890Z,23.4
2016-05-28T11:42:18.845Z,23.43
2016-05-28T11:43:18.832Z,23.47
2016-05-28T11:44:18.772Z,23.37
2016-05-28T11:45:18.728Z,23.39
2016-05-28T11:46:18.544Z,23.39
2016-05-28T11:47:18.656Z,23.43
2016-05-28T11:48:18.627Z,23.46
2016-05-28T11:49:18.598Z,23.44
2016-05-28T11:50:18.992Z,23.48
2016-05-28T11:51:18.510Z,23.46
2016-05-28T11:52:18.466Z,23.46
2016-05-28T11:53:18.281Z,23.44
2016-05-28T11:54:18.237Z,23.39
2016-05-28T11:55:18.380Z,23.5
2016-05-28T11:56:18.321Z,23.46
2016-05-28T11:57:18.292Z,23.41
2016-05-28T11:58:18.248Z,23.41
2016-05-28T11:59:18.219Z,23.44
2016-05-28T12:00:18.191Z,23.4
2016-05-28T12:01:18.131Z,23.39
2016-05-28T12:02:18.165Z,23.37
2016-05-28T12:03:18.058Z,23.44
2016-05-28T12:04:18.030Z,23.47
2016-05-28T12:05:18.282Z,23.55
2016-05-28T12:06:17.972Z,23.48
2016-05-28T12:07:17.913Z,23.58
2016-05-28T12:08:17.899Z,23.56
2016-05-28T12:09:17.684Z,23.5
2016-05-28T12:10:17.828Z,23.48
2016-05-28T12:11:17.798Z,23.46
2016-05-28T12:12:17.738Z,23.47
2016-05-28T12:13:17.711Z,23.46
2016-05-28T12:14:17.666Z,23.5
2016-05-28T12:15:17.481Z,23.5
2016-05-28T12:16:17.593Z,23.51
2016-05-28T12:17:17.408Z,23.48
2016-05-28T12:18:17.505Z,23.5
2016-05-28T12:19:17.508Z,23.48
2016-05-28T12:20:17.463Z,23.5
2016-05-28T12:21:17.450Z,23.47
2016-05-28T12:22:17.390Z,23.48
2016-05-28T12:23:17.346Z,23.46
2016-05-28T12:24:17.302Z,23.48
2016-05-28T12:25:17.274Z,23.51
2016-05-28T12:26:17.057Z,23.46
2016-05-28T12:27:17.185Z,23.4
2016-05-28T12:28:17.140Z,23.48
2016-05-28T12:29:16.957Z,23.44
2016-05-28T12:30:17.084Z,23.39
2016-05-28T12:31:16.883Z,23.48
2016-05-28T12:32:16.995Z,23.47
2016-05-28T12:33:16.811Z,23.37
2016-05-28T12:34:16.939Z,23.4
2016-05-28T12:35:16.894Z,23.41
2016-05-28T12:36:16.851Z,23.4
2016-05-28T12:37:16.806Z,23.34
2016-05-28T12:38:16.621Z,23.4
2016-05-28T12:39:16.734Z,23.43
2016-05-28T12:41:15.848Z,24.16
2016-05-28T12:42:15.741Z,24.43
2016-05-28T12:43:15.681Z,24.63
2016-05-28T12:44:15.637Z,24.77
2016-05-28T12:45:15.468Z,24.96
2016-05-28T12:46:15.249Z,24.8
2016-05-28T12:47:15.520Z,24.78
2016-05-28T12:48:15.474Z,24.78
2016-05-28T12:49:15.460Z,24.74
2016-05-28T12:50:15.588Z,24.88
2016-05-28T12:51:15.357Z,25.04
2016-05-28T12:52:15.155Z,24.91
2016-05-28T12:53:15.112Z,24.91
2016-05-28T12:54:15.068Z,24.96
2016-05-28T12:55:15.179Z,24.92
2016-05-28T12:56:15.166Z,24.78
2016-05-28T12:57:15.154Z,24.78
2016-05-28T12:58:15.078Z,24.85
2016-05-28T12:59:15.018Z,24.7
2016-05-28T13:00:15.007Z,24.74
2016-05-28T13:01:14.790Z,24.61
2016-05-28T13:02:14.948Z,24.66
2016-05-28T13:03:14.890Z,24.58
2016-05-28T13:04:14.813Z,24.36
2016-05-28T13:05:14.754Z,24.5
2016-05-28T13:06:14.772Z,24.38
2016-05-28T13:07:14.540Z,24.18
2016-05-28T13:08:14.637Z,24.29
2016-05-28T13:09:14.609Z,24.42
2016-05-28T13:10:14.564Z,24.36
2016-05-28T13:11:14.378Z,24.21
2016-05-28T13:12:14.491Z,24.16
2016-05-28T13:13:14.431Z,24.11
2016-05-28T13:14:14.403Z,24.13
2016-05-28T13:15:14.358Z,24.14
2016-05-28T13:16:14.330Z,24.02
2016-05-28T13:17:14.286Z,23.96
2016-05-28T13:18:14.225Z,24.01
2016-05-28T13:19:14.213Z,23.99
2016-05-28T13:20:14.637Z,23.98
2016-05-28T13:21:14.125Z,23.96
2016-05-28T13:22:14.080Z,23.96
2016-05-28T13:23:14.036Z,24.01
2016-05-28T13:24:13.977Z,23.96
2016-05-28T13:25:13.979Z,23.86
2016-05-28T13:26:13.904Z,23.96
2016-05-28T13:27:14.125Z,23.98
2016-05-28T13:28:13.862Z,24.01
2016-05-28T13:29:13.788Z,23.93
2016-05-28T13:30:13.727Z,23.83
2016-05-28T13:31:13.699Z,23.86
2016-05-28T13:32:13.670Z,23.69
2016-05-28T13:33:13.626Z,23.69
2016-05-28T13:34:13.566Z,23.73
2016-05-28T13:35:13.522Z,23.71
2016-05-28T13:36:13.478Z,23.65
2016-05-28T13:37:13.309Z,23.58
2016-05-28T13:38:13.249Z,23.61
2016-05-28T13:39:13.361Z,23.39
2016-05-28T13:40:13.332Z,23.39
2016-05-28T13:41:13.272Z,23.39
2016-05-28T13:42:13.072Z,23.25
2016-05-28T13:43:13.215Z,23.31
2016-05-28T13:44:13.171Z,23.34
2016-05-28T13:45:13.142Z,23.32
2016-05-28T13:46:12.755Z,23.36
2016-05-28T13:47:12.882Z,23.37
2016-05-28T13:48:13.010Z,23.36
2016-05-28T13:49:12.934Z,23.13
2016-05-28T13:50:12.999Z,23.25
2016-05-28T13:51:12.862Z,23.15
2016-05-28T13:52:12.817Z,23.18
2016-05-28T13:53:12.789Z,23.17
2016-05-28T13:54:12.760Z,22.99
2016-05-28T13:55:12.685Z,22.94
2016-05-28T13:56:12.641Z,22.84
2016-05-28T13:57:12.597Z,22.81
2016-05-28T13:58:12.552Z,22.75
2016-05-28T13:59:12.540Z,22.87
2016-05-28T14:00:12.479Z,22.72
2016-05-28T14:01:12.420Z,22.69
2016-05-28T14:02:12.266Z,22.81
2016-05-28T14:03:12.347Z,22.94
2016-05-28T14:04:12.303Z,22.94
2016-05-28T14:05:12.274Z,22.98
2016-05-28T14:06:12.230Z,22.98
2016-05-28T14:07:12.014Z,22.94
2016-05-28T14:08:12.142Z,22.94
2016-05-28T14:09:12.113Z,22.94
2016-05-28T14:10:12.054Z,22.94
2016-05-28T14:11:11.993Z,23.02
2016-05-28T14:12:11.964Z,22.88
2016-05-28T14:13:11.921Z,22.75
2016-05-28T14:14:11.892Z,22.75
2016-05-28T14:15:11.691Z,22.7
2016-05-28T14:16:11.827Z,22.73
2016-05-28T14:17:11.806Z,22.8
2016-05-28T14:18:11.645Z,22.8
2016-05-28T14:19:11.781Z,22.8
2016-05-28T14:20:11.766Z,22.88
2016-05-28T14:21:11.716Z,22.72
2016-05-28T14:22:11.712Z,22.63
2016-05-28T14:23:11.646Z,22.88
2016-05-28T14:24:11.501Z,22.96
2016-05-28T14:25:11.570Z,23.1
2016-05-28T14:26:11.389Z,23.09
2016-05-28T14:27:11.505Z,23.12
2016-05-28T14:28:11.479Z,23.2
2016-05-28T14:29:11.423Z,23.24
2016-05-28T14:30:11.396Z,23.21
2016-05-28T14:31:11.368Z,23.27
2016-05-28T14:32:11.341Z,23.23
2016-05-28T14:33:11.095Z,23.18
2016-05-28T14:34:11.067Z,23.17
2016-05-28T14:35:11.524Z,23.17
2016-05-28T14:36:10.995Z,23.09
2016-05-28T14:37:11.092Z,23.02
2016-05-28T14:38:11.049Z,22.93
2016-05-28T14:39:11.051Z,23.06
2016-05-28T14:40:10.993Z,23.02
2016-05-28T14:41:10.932Z,22.96
2016-05-28T14:42:10.888Z,23
2016-05-28T14:43:10.875Z,23
2016-05-28T14:44:10.800Z,22.88
2016-05-28T14:45:10.770Z,22.91
2016-05-28T14:46:10.743Z,22.91
2016-05-28T14:47:10.683Z,22.81
2016-05-28T14:48:10.623Z,22.88
2016-05-28T14:49:10.610Z,22.93
2016-05-28T14:50:11.034Z,22.99
2016-05-28T14:51:10.350Z,23
2016-05-28T14:52:10.477Z,22.99
2016-05-28T14:53:10.417Z,23
2016-05-28T14:54:10.389Z,22.91
2016-05-28T14:55:10.345Z,23.02
2016-05-28T14:56:10.285Z,23.02
2016-05-28T14:57:10.257Z,22.96
2016-05-28T14:58:10.213Z,23.03
2016-05-28T14:59:10.199Z,22.94
2016-05-28T15:00:09.969Z,23.03
2016-05-28T15:01:09.924Z,23.02
2016-05-28T15:02:10.051Z,22.99
2016-05-28T15:03:10.007Z,22.93
2016-05-28T15:04:09.963Z,22.93
2016-05-28T15:05:09.949Z,22.94
2016-05-28T15:06:09.874Z,22.93
2016-05-28T15:07:09.862Z,22.93
2016-05-28T15:08:09.818Z,22.98
2016-05-28T15:09:09.773Z,22.99
2016-05-28T15:10:09.713Z,22.99
2016-05-28T15:11:09.528Z,23.03
2016-05-28T15:12:09.626Z,22.96
2016-05-28T15:13:09.581Z,22.98
2016-05-28T15:14:09.646Z,23.06
2016-05-28T15:15:09.476Z,23
2016-05-28T15:16:09.495Z,23.03
2016-05-28T15:17:09.420Z,23.06
2016-05-28T15:18:09.406Z,23.06
2016-05-28T15:19:09.378Z,23.03
2016-05-28T15:20:09.131Z,23.02
2016-05-28T15:21:09.258Z,22.99
2016-05-28T15:22:09.214Z,22.96
2016-05-28T15:23:09.280Z,23.02
2016-05-28T15:24:09.282Z,23.1
2016-05-28T15:25:09.145Z,22.99
2016-05-28T15:26:09.053Z,23.09
2016-05-28T15:27:09.009Z,23.05
2016-05-28T15:28:08.966Z,23.06
2016-05-28T15:29:08.936Z,23.13
2016-05-28T15:30:08.877Z,23.05
2016-05-28T15:31:08.833Z,23.09
2016-05-28T15:32:08.804Z,22.93
2016-05-28T15:33:08.588Z,23.03
2016-05-28T15:34:08.731Z,23.05
2016-05-28T15:35:08.687Z,23.02
2016-05-28T15:36:08.627Z,22.99
2016-05-28T15:37:08.582Z,23.06
2016-05-28T15:38:08.571Z,22.91
2016-05-28T15:39:08.510Z,23.02
2016-05-28T15:40:08.451Z,23.06
2016-05-28T15:41:08.110Z,23.02
2016-05-28T15:42:08.393Z,23.02
2016-05-28T15:43:08.333Z,22.96
2016-05-28T15:44:08.305Z,22.99
2016-05-28T15:45:08.261Z,22.98
2016-05-28T15:46:08.232Z,22.98
2016-05-28T15:47:08.173Z,22.98
2016-05-28T15:48:08.128Z,22.94
2016-05-28T15:49:08.100Z,22.96
2016-05-28T15:50:07.883Z,23.02
2016-05-28T15:51:07.996Z,23
2016-05-28T15:52:07.951Z,22.99
2016-05-28T15:53:07.922Z,23.05
2016-05-28T15:54:07.879Z,22.96
2016-05-28T15:55:07.867Z,22.94
2016-05-28T15:56:07.806Z,22.94
2016-05-28T15:57:07.761Z,22.98
2016-05-28T15:58:07.717Z,23.02
2016-05-28T15:59:07.533Z,23.05
2016-05-28T16:00:07.630Z,23
2016-05-28T16:01:07.586Z,23.06
2016-05-28T16:02:07.557Z,23.05
2016-05-28T16:03:07.497Z,22.99
2016-05-28T16:04:07.452Z,23
2016-05-28T16:05:07.596Z,22.96
2016-05-28T16:06:07.380Z,22.96
2016-05-28T16:07:07.366Z,22.96
2016-05-28T16:08:07.151Z,22.87
2016-05-28T16:09:07.263Z,22.99
2016-05-28T16:10:07.203Z,22.91
2016-05-28T16:11:07.190Z,23
2016-05-28T16:12:07.146Z,22.91
2016-05-28T16:13:07.086Z,22.99
2016-05-28T16:14:06.901Z,22.85
2016-05-28T16:15:07.013Z,22.91
2016-05-28T16:16:06.970Z,22.93
2016-05-28T16:17:07.190Z,22.9
2016-05-28T16:18:06.881Z,22.9
2016-05-28T16:19:06.853Z,22.96
2016-05-28T16:20:08.809Z,22.91
2016-05-28T16:21:06.764Z,22.88
2016-05-28T16:22:06.782Z,22.88
2016-05-28T16:23:06.676Z,22.76
2016-05-28T16:24:06.647Z,22.85
2016-05-28T16:25:06.447Z,22.87
2016-05-28T16:26:06.542Z,22.9
2016-05-28T16:27:06.500Z,22.93
2016-05-28T16:28:06.314Z,22.81
2016-05-28T16:29:06.442Z,22.91
2016-05-28T16:30:06.382Z,22.85
2016-05-28T16:31:06.385Z,22.62
2016-05-28T16:32:06.294Z,22.72
2016-05-28T16:33:06.249Z,22.68
2016-05-28T16:34:06.221Z,22.78
2016-05-28T16:35:06.442Z,22.63
2016-05-28T16:36:06.148Z,22.66
2016-05-28T16:37:05.948Z,22.72
2016-05-28T16:38:06.044Z,22.62
2016-05-28T16:39:06.093Z,22.68
2016-05-28T16:40:05.971Z,22.75
2016-05-28T16:41:05.927Z,22.63
2016-05-28T16:42:05.899Z,22.8
2016-05-28T16:43:05.682Z,22.73
2016-05-28T16:44:05.810Z,22.66
2016-05-28T16:45:05.751Z,22.69
2016-05-28T16:46:05.721Z,22.75
2016-05-28T16:47:05.662Z,22.62
2016-05-28T16:48:05.649Z,22.76
2016-05-28T16:49:05.605Z,22.66
2016-05-28T16:50:05.404Z,22.65
2016-05-28T16:51:05.501Z,22.68
2016-05-28T16:52:05.456Z,22.69
2016-05-28T16:53:05.428Z,22.68
2016-05-28T16:54:05.368Z,22.59
2016-05-28T16:55:05.339Z,22.7
2016-05-28T16:56:05.295Z,22.59
2016-05-28T16:57:05.251Z,22.7
2016-05-28T16:58:05.222Z,22.66
2016-05-28T16:59:05.023Z,22.7
2016-05-28T17:00:05.150Z,22.54
2016-05-28T17:01:05.090Z,22.68
2016-05-28T17:02:05.030Z,22.59
2016-05-28T17:03:05.002Z,22.54
2016-05-28T17:04:04.958Z,22.54
2016-05-28T17:05:06.210Z,22.55
2016-05-28T17:06:04.886Z,22.5
2016-05-28T17:07:04.841Z,22.5
2016-05-28T17:08:04.813Z,22.53
2016-05-28T17:09:04.737Z,22.43
2016-05-28T17:10:04.708Z,22.44
2016-05-28T17:11:04.679Z,22.51
2016-05-28T17:12:04.464Z,22.44
2016-05-28T17:13:04.576Z,22.48
2016-05-28T17:14:04.532Z,22.45
2016-05-28T17:15:04.346Z,22.44
2016-05-28T17:16:04.474Z,22.43
2016-05-28T17:17:04.415Z,22.35
2016-05-28T17:18:04.355Z,22.41
2016-05-28T17:19:04.326Z,22.41
2016-05-28T17:20:04.298Z,22.39
2016-05-28T17:21:04.112Z,22.51
2016-05-28T17:22:04.209Z,22.38
2016-05-28T17:23:04.181Z,22.36
2016-05-28T17:24:04.121Z,22.35
2016-05-28T17:25:04.123Z,22.36
2016-05-28T17:26:04.033Z,22.43
2016-05-28T17:27:04.004Z,22.32
2016-05-28T17:28:03.944Z,22.28
2016-05-28T17:29:03.916Z,22.28
2016-05-28T17:30:03.871Z,22.3
2016-05-28T17:31:03.828Z,22.2
2016-05-28T17:32:03.627Z,22.29
2016-05-28T17:33:03.582Z,22.29
2016-05-28T17:34:03.695Z,22.26
2016-05-28T17:35:03.541Z,22.25
2016-05-28T17:36:03.621Z,22.23
2016-05-28T17:37:03.578Z,22.25
2016-05-28T17:38:03.550Z,22.15
2016-05-28T17:39:03.318Z,22.18
2016-05-28T17:40:03.445Z,22.29
2016-05-28T17:41:03.401Z,22.15
2016-05-28T17:42:03.371Z,22.17
2016-05-28T17:43:03.313Z,22.13
2016-05-28T17:44:03.284Z,22.25
2016-05-28T17:45:03.287Z,22.14
2016-05-28T17:46:02.883Z,22.02
2016-05-28T17:47:02.995Z,22.2
2016-05-28T17:48:03.107Z,22.1
2016-05-28T17:49:03.079Z,22.14
2016-05-28T17:50:03.035Z,22.08
2016-05-28T17:51:03.693Z,22
2016-05-28T17:52:02.774Z,22.18
2016-05-28T17:53:02.887Z,21.96
2016-05-28T17:54:02.858Z,22
2016-05-28T17:55:02.798Z,22.04
2016-05-28T17:56:02.769Z,22.08
2016-05-28T17:57:02.741Z,22.02
2016-05-28T17:58:02.681Z,22.04
2016-05-28T17:59:02.636Z,21.99
2016-05-28T18:00:02.609Z,21.98
2016-05-28T18:01:02.548Z,21.88
2016-05-28T18:02:02.504Z,21.99
2016-05-28T18:03:02.476Z,21.95
2016-05-28T18:04:02.431Z,21.99
2016-05-28T18:05:02.387Z,21.88
2016-05-28T18:06:02.343Z,21.92
2016-05-28T18:07:02.159Z,21.79
2016-05-28T18:08:02.271Z,21.83
2016-05-28T18:09:02.226Z,21.73
2016-05-28T18:10:02.183Z,21.73
2016-05-28T18:11:02.154Z,21.73
2016-05-28T18:12:02.093Z,21.66
2016-05-28T18:13:02.049Z,21.7
2016-05-28T18:14:02.005Z,21.55
2016-05-28T18:15:01.961Z,21.52
2016-05-28T18:16:01.948Z,21.46
2016-05-28T18:17:01.888Z,21.42
2016-05-28T18:18:01.829Z,21.43
2016-05-28T18:19:02.003Z,21.46
2016-05-28T18:20:02.318Z,21.39
2016-05-28T18:21:01.556Z,21.33
2016-05-28T18:22:01.698Z,21.45
2016-05-28T18:23:01.499Z,21.42
2016-05-28T18:24:01.610Z,21.29
2016-05-28T18:25:01.534Z,21.24
2016-05-28T18:26:01.491Z,21.29
2016-05-28T18:27:01.462Z,21.29
2016-05-28T18:28:01.417Z,21.27
2016-05-28T18:29:01.373Z,21.25
2016-05-28T18:30:01.017Z,21.11
2016-05-28T18:31:01.286Z,21.17
2016-05-28T18:32:01.241Z,21.03
2016-05-28T18:33:01.197Z,21.05
2016-05-28T18:34:01.153Z,21.15
2016-05-28T18:35:01.233Z,21.07
2016-05-28T18:36:01.064Z,20.96
2016-05-28T18:37:01.020Z,20.8
2016-05-28T18:38:00.991Z,20.88
2016-05-28T18:39:00.932Z,21
2016-05-28T18:40:00.763Z,20.96
2016-05-28T18:41:00.860Z,21.07
2016-05-28T18:42:00.799Z,21.05
2016-05-28T18:43:00.771Z,21.11
2016-05-28T18:44:00.742Z,20.96
2016-05-28T18:45:00.713Z,20.99
2016-05-28T18:46:00.638Z,20.95
2016-05-28T18:47:00.610Z,20.95
2016-05-28T18:48:00.549Z,20.87
2016-05-28T18:49:00.521Z,20.84
2016-05-28T18:50:01.055Z,20.85
2016-05-28T18:51:00.417Z,20.81
2016-05-28T18:52:00.390Z,20.84
2016-05-28T18:53:00.345Z,20.82
2016-05-28T18:54:00.284Z,20.82
2016-05-28T18:55:00.303Z,20.8
2016-05-28T18:56:00.212Z,20.81
2016-05-28T18:57:00.028Z,20.7
2016-05-28T18:58:00.108Z,20.66
2016-05-28T18:59:00.095Z,20.72
2016-05-28T19:00:00.019Z,20.74
2016-05-28T19:00:59.851Z,20.67
2016-05-28T19:01:59.947Z,20.66
2016-05-28T19:02:59.918Z,20.66
2016-05-28T19:03:59.718Z,20.66
2016-05-28T19:04:59.689Z,20.62
2016-05-28T19:05:59.786Z,20.5
2016-05-28T19:06:59.741Z,20.58
2016-05-28T19:07:59.682Z,20.43
2016-05-28T19:08:59.638Z,20.51
2016-05-28T19:09:59.608Z,20.41
2016-05-28T19:10:59.565Z,20.44
2016-05-28T19:11:59.505Z,20.4
2016-05-28T19:12:59.491Z,20.44
2016-05-28T19:13:59.449Z,20.48
2016-05-28T19:14:59.216Z,20.5
2016-05-28T19:15:59.172Z,20.41
2016-05-28T19:16:59.315Z,20.44
2016-05-28T19:17:59.241Z,20.41
2016-05-28T19:18:59.055Z,20.55
2016-05-28T19:19:58.995Z,20.37
2016-05-28T19:20:59.123Z,20.31
2016-05-28T19:21:59.079Z,20.21
2016-05-28T19:22:59.019Z,20.24
2016-05-28T19:23:58.865Z,20.26
2016-05-28T19:24:58.946Z,20.16
2016-05-28T19:25:58.887Z,20.1
2016-05-28T19:26:58.842Z,20.13
2016-05-28T19:27:58.814Z,20.13
2016-05-28T19:28:58.769Z,20.16
2016-05-28T19:29:58.725Z,20.21
2016-05-28T19:30:58.681Z,20.18
2016-05-28T19:31:58.637Z,20.1
2016-05-28T19:32:58.436Z,20.11
2016-05-28T19:33:58.643Z,20.16
2016-05-28T19:34:59.520Z,20.13
2016-05-28T19:35:58.678Z,20.06
2016-05-28T19:36:58.620Z,20.06
2016-05-28T19:37:58.622Z,20.06
2016-05-28T19:38:58.421Z,20.02
2016-05-28T19:39:58.268Z,20.11
2016-05-28T19:40:58.474Z,20.06
2016-05-28T19:41:58.383Z,20
2016-05-28T19:42:58.402Z,20
2016-05-28T19:43:58.185Z,19.91
2016-05-28T19:44:58.202Z,19.95
2016-05-28T19:45:58.019Z,19.91
2016-05-28T19:46:57.990Z,19.94
2016-05-28T19:47:57.946Z,19.91
2016-05-28T19:48:57.902Z,19.79
2016-05-28T19:49:57.841Z,19.73
2016-05-28T19:50:57.798Z,19.81
2016-05-28T19:51:57.784Z,19.82
2016-05-28T19:52:57.709Z,19.77
2016-05-28T19:53:57.665Z,19.79
2016-05-28T19:54:57.621Z,19.82
2016-05-28T19:55:57.732Z,19.74
2016-05-28T19:56:57.548Z,19.73
2016-05-28T19:57:57.488Z,19.79
2016-05-28T19:58:57.444Z,19.74
2016-05-28T19:59:57.400Z,19.63
2016-05-28T20:00:57.387Z,19.63
2016-05-28T20:01:57.155Z,19.63
2016-05-28T20:02:57.283Z,19.64
2016-05-28T20:03:57.239Z,19.52
2016-05-28T20:04:57.304Z,19.62
2016-05-28T20:05:57.167Z,19.51
2016-05-28T20:06:56.933Z,19.62
2016-05-28T20:07:57.061Z,19.58
2016-05-28T20:08:57.018Z,19.58
2016-05-28T20:09:56.786Z,19.49
2016-05-28T20:11:00.085Z,19.52
2016-05-28T20:11:56.900Z,19.49
2016-05-28T20:12:56.825Z,19.47
2016-05-28T20:13:56.781Z,19.34
2016-05-28T20:14:56.738Z,19.34
2016-05-28T20:15:56.740Z,19.33
2016-05-28T20:16:56.633Z,19.31
2016-05-28T20:17:56.589Z,19.34
2016-05-28T20:18:56.607Z,19.33
2016-05-28T20:19:56.751Z,19.34
2016-05-28T20:20:56.754Z,19.31
2016-05-28T20:21:56.428Z,19.3
2016-05-28T20:22:56.415Z,19.41
2016-05-28T20:23:56.183Z,19.34
2016-05-28T20:24:56.310Z,19.29
2016-05-28T20:25:56.267Z,19.37
2016-05-28T20:26:56.207Z,19.39
2016-05-28T20:27:56.162Z,19.24
2016-05-28T20:28:55.963Z,19.24
2016-05-28T20:29:56.074Z,19.3
2016-05-28T20:30:56.014Z,19.26
2016-05-28T20:31:55.971Z,19.27
2016-05-28T20:32:55.926Z,19.21
2016-05-28T20:33:55.741Z,19.24
2016-05-28T20:34:55.900Z,19.22
2016-05-28T20:35:56.606Z,19.21
2016-05-28T20:36:55.749Z,19.18
2016-05-28T20:37:55.737Z,19.24
2016-05-28T20:38:55.677Z,19.15
2016-05-28T20:39:55.476Z,19.09
2016-05-28T20:40:55.588Z,18.99
2016-05-28T20:41:55.544Z,19.09
2016-05-28T20:42:55.484Z,19.04
2016-05-28T20:43:55.299Z,19.15
2016-05-28T20:44:55.303Z,19.04
2016-05-28T20:45:55.352Z,18.9
2016-05-28T20:46:55.323Z,18.99
2016-05-28T20:47:55.263Z,18.93
2016-05-28T20:48:55.219Z,18.86
2016-05-28T20:49:55.690Z,18.88
2016-05-28T20:50:55.005Z,18.88
2016-05-28T20:51:55.196Z,18.8
2016-05-28T20:52:55.042Z,18.9
2016-05-28T20:53:54.998Z,18.81
2016-05-28T20:54:54.954Z,18.88
2016-05-28T20:55:54.910Z,18.89
2016-05-28T20:56:54.850Z,18.9
2016-05-28T20:57:54.821Z,18.75
2016-05-28T20:58:54.777Z,18.83
2016-05-28T20:59:54.734Z,18.75
2016-05-28T21:00:54.673Z,18.89
2016-05-28T21:01:54.488Z,18.88
2016-05-28T21:02:54.600Z,18.75
2016-05-28T21:03:54.557Z,18.73
2016-05-28T21:04:54.637Z,18.8
2016-05-28T21:05:54.468Z,18.77
2016-05-28T21:06:54.424Z,18.65
2016-05-28T21:07:54.364Z,18.8
2016-05-28T21:08:54.320Z,18.74
2016-05-28T21:09:54.291Z,18.63
2016-05-28T21:10:54.231Z,18.66
2016-05-28T21:11:54.250Z,18.65
2016-05-28T21:12:54.143Z,18.74
2016-05-28T21:13:54.099Z,18.66
2016-05-28T21:14:54.039Z,18.55
2016-05-28T21:15:54.010Z,18.56
2016-05-28T21:16:53.966Z,18.56
2016-05-28T21:17:53.797Z,18.53
2016-05-28T21:18:53.877Z,18.59
2016-05-28T21:19:53.677Z,18.6
2016-05-28T21:20:53.790Z,18.5
2016-05-28T21:21:53.745Z,18.47
2016-05-28T21:22:53.920Z,18.47
2016-05-28T21:23:53.532Z,18.52
2016-05-28T21:24:53.597Z,18.43
2016-05-28T21:25:53.459Z,18.43
2016-05-28T21:26:53.540Z,18.47
2016-05-28T21:27:53.465Z,18.44
2016-05-28T21:28:53.420Z,18.35
2016-05-28T21:29:53.376Z,18.4
2016-05-28T21:30:53.207Z,18.45
2016-05-28T21:31:53.287Z,18.33
2016-05-28T21:32:53.243Z,18.45
2016-05-28T21:33:53.309Z,18.41
2016-05-28T21:34:52.999Z,18.31
2016-05-28T21:35:53.877Z,18.34
2016-05-28T21:36:52.911Z,18.44
2016-05-28T21:37:53.007Z,18.34
2016-05-28T21:38:53.181Z,18.35
2016-05-28T21:39:52.966Z,18.29
2016-05-28T21:40:52.875Z,18.23
2016-05-28T21:41:52.830Z,18.18
2016-05-28T21:42:52.770Z,18.22
2016-05-28T21:43:52.569Z,18.23
2016-05-28T21:44:52.541Z,18.22
2016-05-28T21:45:52.653Z,18.2
2016-05-28T21:46:52.594Z,18.19
2016-05-28T21:47:52.566Z,18.19
2016-05-28T21:48:52.521Z,18.22
2016-05-28T21:49:52.461Z,18.1
2016-05-28T21:50:52.417Z,18.08
2016-05-28T21:51:52.357Z,18.1
2016-05-28T21:52:52.329Z,18.18
2016-05-28T21:53:52.113Z,18.07
2016-05-28T21:54:52.068Z,18.04
2016-05-28T21:55:52.180Z,18.22
2016-05-28T21:56:52.137Z,18.2
2016-05-28T21:57:52.093Z,18.01
2016-05-28T21:58:52.079Z,18.18
2016-05-28T21:59:52.207Z,18.1
2016-05-28T22:00:51.819Z,18.13
2016-05-28T22:01:51.916Z,18.08
2016-05-28T22:02:51.871Z,18.08
2016-05-28T22:03:51.827Z,18.15
2016-05-28T22:04:51.798Z,18.08
2016-05-28T22:05:52.598Z,18.04
2016-05-28T22:06:51.678Z,18.15
2016-05-28T22:07:51.634Z,18.11
2016-05-28T22:08:51.590Z,18.04
2016-05-28T22:09:51.547Z,18.01
2016-05-28T22:10:51.518Z,18.05
2016-05-28T22:11:51.473Z,18.01
2016-05-28T22:12:51.398Z,17.98
2016-05-28T22:13:51.370Z,17.92
2016-05-28T22:14:51.325Z,17.97
2016-05-28T22:15:51.281Z,17.95
2016-05-28T22:16:51.222Z,17.94
2016-05-28T22:17:51.177Z,17.89
2016-05-28T22:18:51.133Z,17.89
2016-05-28T22:19:50.933Z,17.89
2016-05-28T22:20:51.326Z,17.92
2016-05-28T22:21:50.844Z,17.85
2016-05-28T22:22:50.941Z,17.9
2016-05-28T22:23:50.897Z,17.87
2016-05-28T22:24:50.852Z,17.79
2016-05-28T22:25:50.840Z,17.85
2016-05-28T22:26:50.624Z,17.83
2016-05-28T22:27:50.720Z,17.79
2016-05-28T22:28:50.519Z,17.86
2016-05-28T22:29:50.632Z,17.79
2016-05-28T22:30:50.603Z,17.85
2016-05-28T22:31:50.527Z,17.86
2016-05-28T22:32:50.529Z,17.86
2016-05-28T22:33:50.454Z,17.92
2016-05-28T22:34:50.645Z,17.95
2016-05-28T22:35:51.351Z,17.85
2016-05-28T22:36:50.322Z,17.79
2016-05-28T22:37:50.278Z,17.85
2016-05-28T22:38:50.218Z,17.72
2016-05-28T22:39:50.173Z,17.85
2016-05-28T22:40:50.130Z,17.87